Latest Weather Observations for Oakey

IDQ60801

Issued at 5:32 pm EST Saturday 25 June 2022 (issued every 10 minutes, with the page automatically refreshed every 10 minutes)

About weather observations | Map of weather stations | Latest weather observations for QLD | Other Formats
Station Details ID: 041359 Name: OAKEY AERO Lat: -27.40 Lon: 151.74 Height: 405.69 m
Data from the previous 72 hours. | See also: Recent months at Oakey
Date/Time
EST
Temp
°C
App
Temp
°C
Dew
Point
°C
Rel
Hum
%
Delta-T
°C
Wind Press
QNH
hPa
Press
MSL
hPa
Rain since
9am
mm
Dir  Spd
km/h
Gust
km/h
Spd
kts
Gust
kts
25/05:30pm 13.0 10.1 1.4 45 5.1 SW 6 7 3 4 1022.7 1022.7 0.0
25/05:00pm 15.3 11.8 1.4 39 6.2 SW 9 13 5 7 1022.5 1022.5 0.0
25/04:30pm 17.9 13.7 1.4 33 7.5 SW 13 17 7 9 1022.3 1022.3 0.0
25/04:00pm 19.2 14.6 1.7 31 8.1 WSW 15 19 8 10 1022.1 1022.1 0.0
25/03:30pm 19.6 15.0 1.6 30 8.4 SW 15 20 8 11 1022.0 1022.0 0.0
25/03:00pm 20.0 17.1 2.4 31 8.3 SW 7 17 4 9 1021.8 1021.7 0.0
25/02:30pm 19.5 15.6 3.2 34 7.8 SW 13 19 7 10 1021.9 1021.9 0.0
25/02:00pm 19.4 15.0 2.7 33 7.9 SSW 15 20 8 11 1022.1 1022.1 0.0
25/01:30pm 19.4 14.9 2.3 32 8.0 SW 15 24 8 13 1022.1 1022.1 0.0
25/01:00pm 19.1 14.2 2.0 32 7.9 SSW 17 26 9 14 1022.3 1022.3 0.0
25/12:30pm 19.1 14.2 2.0 32 8.0 WSW 17 24 9 13 1022.8 1022.8 0.0
25/12:00pm 18.6 16.1 3.6 37 7.2 W 6 13 3 7 1023.2 1023.2 0.0
25/11:30am 17.4 13.9 3.3 39 6.7 S 11 20 6 11 1023.7 1023.6 0.0
25/11:00am 16.8 12.9 3.5 41 6.3 S 13 20 7 11 1023.7 1023.6 0.0
25/10:30am 16.2 12.3 5.2 48 5.4 SSE 15 20 8 11 1023.5 1023.4 0.0
25/10:00am 14.2 10.8 5.8 57 4.1 SSE 13 19 7 10 1023.8 1023.7 0.0
25/09:30am 11.6 9.6 6.9 73 2.3 SE 7 13 4 7 1023.8 1023.7 0.0
25/09:00am 9.3 7.3 6.2 81 1.5 E 6 7 3 4 1023.9 1023.8 0.0
25/08:30am 6.2 4.0 5.2 93 0.4 SE 6 7 3 4 1023.6 1023.5 0.0
25/08:00am 3.2 0.5 2.8 97 0.2 E 6 7 3 4 1023.5 1023.4 0.0
25/07:30am 0.2 -3.5 -0.2 97 0.1 ESE 9 9 5 5 1023.4 1023.3 0.0
25/07:00am -1.7 -5.3 -2.1 97 0.1 E 7 9 4 5 1023.2 1023.2 0.0
25/06:30am -1.9 -5.9 -2.3 97 0.1 E 9 9 5 5 1022.7 1022.7 0.0
25/06:00am -1.6 -5.6 -2.0 97 0.1 ESE 9 11 5 6 1022.4 1022.4 0.0
25/05:30am -1.6 -5.2 -2.0 97 0.1 E 7 9 4 5 1022.4 1022.4 0.0
25/05:00am -1.7 -4.0 -2.1 97 0.1 CALM 0 6 0 3 1022.1 1022.1 0.0
25/04:30am -1.4 -5.0 -1.8 97 0.1 NNE 7 9 4 5 1021.9 1021.9 0.0
25/04:00am -0.2 -4.4 -0.6 97 0.1 SE 11 13 6 7 1021.5 1021.4 0.0
25/03:30am -0.8 -4.3 -1.2 97 0.1 ESE 7 9 4 5 1021.8 1021.7 0.0
25/03:00am -0.3 -4.1 -0.7 97 0.1 E 9 9 5 5 1021.7 1021.6 0.0
25/02:30am -0.1 -3.5 -0.5 97 0.1 ESE 7 9 4 5 1021.9 1021.9 0.0
25/02:00am -0.5 -3.9 -0.9 97 0.1 E 7 9 4 5 1021.9 1021.9 0.0
25/01:30am -0.1 -3.3 -0.5 97 0.1 ESE 6 9 3 5 1022.0 1022.0 0.0
25/01:00am 0.3 -3.0 -0.1 97 0.1 E 7 9 4 5 1022.3 1022.3 0.0
25/12:30am 0.4 -3.3 -0.2 96 0.2 E 9 9 5 5 1022.5 1022.5 0.0
25/12:00am 1.4 -1.6 0.8 96 0.2 ENE 6 7 3 4 1022.5 1022.5 0.0
 
Date/Time
EST
Temp
°C
App
Temp
°C
Dew
Point
°C
Rel
Hum
%
Delta-T
°C
Wind Press
QNH
hPa
Press
MSL
hPa
Rain since
9am
mm
Dir  Spd
km/h
Gust
km/h
Spd
kts
Gust
kts
24/11:30pm 1.8 -1.7 1.2 96 0.2 ESE 9 9 5 5 1022.8 1022.8 0.0
24/11:00pm 1.9 -1.6 1.2 95 0.3 ESE 9 11 5 6 1023.1 1023.1 0.0
24/10:30pm 2.0 -1.2 1.0 93 0.4 ENE 7 9 4 5 1023.4 1023.3 0.0
24/10:00pm 3.1 0.2 1.6 90 0.6 ENE 6 7 3 4 1023.4 1023.3 0.0
24/09:30pm 2.4 -1.2 0.9 90 0.6 E 9 9 5 5 1023.1 1023.1 0.0
24/09:00pm 3.1 -0.4 1.3 88 0.7 ESE 9 11 5 6 1023.0 1023.0 0.0
24/08:30pm 3.6 0.4 0.8 82 1.1 E 7 9 4 5 1023.1 1023.1 0.0
24/08:00pm 4.4 0.7 2.3 86 0.9 NE 11 13 6 7 1022.9 1022.9 0.0
24/07:30pm 6.0 2.4 3.2 82 1.2 NE 11 13 6 7 1022.5 1022.5 0.0
24/07:00pm 7.9 6.7 4.7 80 1.4 CALM 0 0 0 0 1022.2 1022.2 0.0
24/06:30pm 10.2 8.5 3.9 65 2.8 WNW 2 6 1 3 1021.9 1021.9 0.0
24/06:00pm 11.4 7.9 1.4 50 4.3 W 9 11 5 6 1021.6 1021.5 0.0
24/05:30pm 13.1 9.1 0.8 43 5.3 W 11 13 6 7 1021.4 1021.3 0.0
24/05:00pm 14.5 10.2 1.1 40 5.9 WSW 13 13 7 7 1021.2 1021.1 0.0
24/04:30pm 17.8 13.5 1.3 33 7.5 WSW 13 17 7 9 1021.1 1021.0 0.0
24/04:00pm 19.4 15.6 1.9 31 8.1 W 11 15 6 8 1021.0 1020.9 0.0
24/03:30pm 19.7 15.6 2.1 31 8.3 W 13 19 7 10 1020.9 1020.8 0.0
24/03:00pm 19.7 14.6 0.7 28 8.6 WSW 17 20 9 11 1020.8 1020.7 0.0
24/02:30pm 19.7 14.6 0.7 28 8.7 WSW 17 24 9 13 1020.9 1020.8 0.0
24/02:00pm 19.4 13.8 -0.1 27 8.7 W 19 28 10 15 1021.1 1021.0 0.0
24/01:30pm 19.7 15.3 0.2 27 8.8 W 13 22 7 12 1021.2 1021.1 0.0
24/01:00pm 19.0 14.3 0.6 29 8.3 W 15 22 8 12 1021.4 1021.3 0.0
24/12:30pm 18.4 13.2 0.1 29 8.2 WSW 17 20 9 11 1021.9 1021.9 0.0
24/12:00pm 18.0 13.2 0.2 30 7.9 W 15 20 8 11 1022.4 1022.4 0.0
24/11:30am 17.6 13.3 0.7 32 7.6 W 13 17 7 9 1023.0 1023.0 0.0
24/11:00am 16.9 13.5 2.1 37 6.8 W 9 15 5 8 1023.5 1023.4 0.0
24/10:30am 14.8 12.4 4.5 50 4.9 SW 6 9 3 5 1023.8 1023.7 0.0
24/10:00am 13.2 12.1 6.8 65 3.1 W 2 6 1 3 1024.0 1024.0 0.0
24/09:30am 12.2 11.5 6.9 70 2.6 CALM 0 0 0 0 1024.1 1024.1 0.0
24/09:00am 9.8 9.1 7.1 83 1.3 CALM 0 0 0 0 1024.1 1024.1 0.0
24/08:30am 5.9 3.7 5.5 97 0.2 SE 6 6 3 3 1024.0 1024.0 0.0
24/08:00am 3.7 1.1 3.3 97 0.2 ESE 6 7 3 4 1023.9 1023.8 0.0
24/07:30am 0.7 -2.4 0.3 97 0.1 E 6 7 3 4 1023.8 1023.7 0.0
24/07:00am -0.9 -4.2 -1.3 97 0.1 ESE 6 6 3 3 1023.7 1023.6 0.0
24/06:30am -1.1 -4.6 -1.5 97 0.1 ESE 7 9 4 5 1023.6 1023.5 0.0
24/06:00am -0.5 -3.8 -0.9 97 0.1 E 6 6 3 3 1023.2 1023.2 0.0
24/05:30am -0.7 -4.0 -1.1 97 0.1 E 6 6 3 3 1022.8 1022.8 0.0
24/05:00am -0.3 -3.7 -0.7 97 0.1 ESE 7 9 4 5 1022.6 1022.6 0.0
24/04:30am -0.5 -3.8 -0.9 97 0.1 ESE 6 6 3 3 1022.6 1022.6 0.0
24/04:00am -0.1 -3.9 -0.5 97 0.1 ESE 9 9 5 5 1022.7 1022.7 0.0
24/03:30am 0.6 -2.5 0.2 97 0.1 ESE 6 7 3 4 1022.7 1022.7 0.0
24/03:00am 0.4 -2.7 0.0 97 0.1 ESE 6 7 3 4 1023.1 1023.1 0.0
24/02:30am 0.6 -2.7 0.2 97 0.1 E 7 7 4 4 1023.2 1023.2 0.0
24/02:00am 0.6 -1.4 0.2 97 0.1 CALM 0 0 0 0 1023.4 1023.3 0.0
24/01:30am 1.2 -1.8 0.8 97 0.2 ENE 6 7 3 4 1023.6 1023.5 0.0
24/01:00am 1.7 -1.2 1.3 97 0.2 ESE 6 7 3 4 1023.6 1023.5 0.0
24/12:30am 1.5 -1.6 1.1 97 0.2 E 7 9 4 5 1023.7 1023.6 0.0
24/12:00am 2.5 -0.3 2.1 97 0.2 ENE 6 7 3 4 1024.0 1024.0 0.0
 
Date/Time
EST
Temp
°C
App
Temp
°C
Dew
Point
°C
Rel
Hum
%
Delta-T
°C
Wind Press
QNH
hPa
Press
MSL
hPa
Rain since
9am
mm
Dir  Spd
km/h
Gust
km/h
Spd
kts
Gust
kts
23/11:30pm 2.5 -0.3 2.1 97 0.2 E 6 7 3 4 1024.1 1024.1 0.0
23/11:00pm 2.7 -0.1 2.3 97 0.2 ESE 6 7 3 4 1024.3 1024.3 0.0
23/10:30pm 2.9 -0.1 2.2 95 0.3 ESE 7 9 4 5 1024.4 1024.4 0.0
23/10:00pm 3.1 0.3 2.1 93 0.4 E 6 7 3 4 1024.4 1024.4 0.0
23/09:30pm 4.0 1.7 2.7 91 0.5 E 4 7 2 4 1024.5 1024.5 0.0
23/09:00pm 5.0 2.5 3.5 90 0.6 E 6 7 3 4 1024.3 1024.3 0.0
23/08:30pm 5.3 2.7 4.0 91 0.6 ENE 7 9 4 5 1024.2 1024.2 0.0
23/08:00pm 5.5 2.0 3.5 87 0.9 E 11 13 6 7 1024.1 1024.1 0.0
23/07:30pm 5.8 2.6 3.0 82 1.2 E 9 13 5 7 1023.9 1023.8 0.0
23/07:00pm 8.2 5.7 3.9 74 1.9 NNE 6 9 3 5 1023.6 1023.5 0.0
23/06:30pm 10.0 7.4 4.4 68 2.6 N 7 7 4 4 1023.2 1023.2 0.0
23/06:00pm 12.4 9.1 2.3 50 4.5 W 9 11 5 6 1023.0 1023.0 0.0
23/05:30pm 13.9 10.7 2.8 47 5.0 WNW 9 11 5 6 1022.8 1022.8 0.0
23/05:00pm 17.1 14.1 2.3 37 6.8 W 7 9 4 5 1022.6 1022.6 0.0
23/04:30pm 19.0 15.7 2.4 33 7.8 W 9 11 5 6 1022.5 1022.5 0.0
23/04:00pm 20.4 18.1 2.7 31 8.4 W 4 9 2 5 1022.4 1022.4 0.0
23/03:30pm 20.5 16.8 2.3 30 8.6 W 11 13 6 7 1022.2 1022.2 0.0
23/03:00pm 20.8 17.6 3.1 31 8.5 W 9 15 5 8 1022.5 1022.5 0.0
23/02:30pm 20.4 17.3 1.3 28 8.9 WSW 7 11 4 6 1022.6 1022.6 0.0
23/02:00pm 19.9 16.6 2.7 32 8.2 WNW 9 13 5 7 1022.6 1022.6 0.0
23/01:30pm 20.2 17.4 3.4 33 8.1 W 7 11 4 6 1022.8 1022.8 0.0
23/01:00pm 19.3 16.8 3.5 35 7.6 WNW 6 9 3 5 1023.5 1023.4 0.0
23/12:30pm 19.4 15.9 3.6 35 7.6 WNW 11 15 6 8 1024.0 1024.0 0.0
23/12:00pm 18.8 16.5 5.6 42 6.6 WNW 7 11 4 6 1024.7 1024.7 0.0
23/11:30am 17.8 15.6 6.3 47 5.8 SSW 7 11 4 6 1025.3 1025.3 0.0
23/11:00am 17.7 16.7 7.4 51 5.3 SW 2 9 1 5 1025.4 1025.4 0.0
23/10:30am 16.4 16.3 9.3 63 3.8 CALM 0 4 0 2 1025.8 1025.8 0.0
23/10:00am 14.2 14.1 9.4 73 2.5 CALM 0 0 0 0 1026.4 1026.4 0.0
23/09:30am 12.6 12.4 8.9 78 1.9 CALM 0 0 0 0 1026.7 1026.7 0.0
23/09:00am 10.9 10.6 8.7 86 1.1 CALM 0 0 0 0 1026.7 1026.7 0.0
23/08:30am 8.4 7.9 8.0 97 0.2 CALM 0 0 0 0 1026.6 1026.6 0.0
23/08:00am 5.6 4.5 5.2 97 0.2 CALM 0 0 0 0 1026.4 1026.4 0.0
23/07:30am 3.1 0.4 2.7 97 0.2 ENE 6 7 3 4 1026.1 1026.0 0.0
23/07:00am 1.3 -1.9 0.9 97 0.2 NE 7 9 4 5 1025.7 1025.7 0.0
23/06:30am 0.8 -2.5 0.4 97 0.2 E 7 7 4 4 1025.4 1025.4 0.0
23/06:00am 0.8 -2.5 0.4 97 0.1 SE 7 9 4 5 1025.2 1025.2 0.0
23/05:30am 1.0 -2.2 0.6 97 0.2 SE 7 9 4 5 1024.9 1024.9 0.0
23/05:00am 1.3 -2.3 0.9 97 0.2 SE 9 11 5 6 1024.8 1024.8 0.0
23/04:30am 1.8 -1.1 1.4 97 0.2 E 6 7 3 4 1024.7 1024.7 0.0
23/04:00am 2.1 -0.9 1.7 97 0.2 E 7 7 4 4 1024.5 1024.5 0.0
23/03:30am 1.8 -1.1 1.4 97 0.2 ENE 6 7 3 4 1024.7 1024.7 0.0
23/03:00am 2.1 -1.3 1.7 97 0.2 NE 9 9 5 5 1024.7 1024.7 0.0
23/02:30am 2.5 -0.5 2.1 97 0.2 E 7 9 4 5 1024.8 1024.8 0.0
23/02:00am 2.8 -0.1 2.4 97 0.2 SE 7 9 4 5 1024.8 1024.8 0.0
23/01:30am 3.2 0.3 2.8 97 0.2 ESE 7 7 4 4 1024.9 1024.9 0.0
23/01:00am 3.6 1.0 3.2 97 0.2 E 6 7 3 4 1025.1 1025.1 0.0
23/12:30am 3.4 0.8 3.0 97 0.2 E 6 7 3 4 1025.1 1025.1 0.0
23/12:00am 3.4 0.6 3.0 97 0.2 ESE 7 9 4 5 1025.3 1025.3 0.0
 
Date/Time
EST
Temp
°C
App
Temp
°C
Dew
Point
°C
Rel
Hum
%
Delta-T
°C
Wind Press
QNH
hPa
Press
MSL
hPa
Rain since
9am
mm
Dir  Spd
km/h
Gust
km/h
Spd
kts
Gust
kts
22/11:30pm 4.0 1.5 3.6 97 0.2 ESE 6 7 3 4 1025.5 1025.5 0.0
22/11:00pm 4.3 2.5 3.7 96 0.3 E 2 6 1 3 1025.5 1025.5 0.0
22/10:30pm 5.1 2.2 4.7 97 0.2 NE 9 11 5 6 1025.7 1025.7 0.0
22/10:00pm 5.4 2.6 5.0 97 0.2 NNE 9 9 5 5 1025.8 1025.8 0.0
22/09:30pm 5.8 3.0 5.2 96 0.3 NNE 9 11 5 6 1025.6 1025.6 0.0
22/09:00pm 6.2 4.0 5.2 93 0.4 NNE 6 9 3 5 1025.6 1025.6 0.0
22/08:30pm 7.4 5.3 6.0 91 0.6 E 6 7 3 4 1025.4 1025.4 0.0
22/08:00pm 7.2 6.1 5.2 87 0.9 CALM 0 0 0 0 1025.0 1025.0 0.0
22/07:30pm 8.3 5.5 5.1 80 1.5 SE 9 11 5 6 1024.7 1024.7 0.0
22/07:00pm 9.9 7.2 5.7 75 2.0 SSE 9 11 5 6 1024.4 1024.4 0.0
22/06:30pm 12.5 9.7 5.2 61 3.5 S 9 9 5 5 1024.1 1024.1 0.0
22/06:00pm 12.3 9.6 5.7 64 3.1 S 9 11 5 6 1023.8 1023.7 0.0

Other formats

Comma delimited format used in spreadsheet applications
http://www.bom.gov.au/fwo/IDQ60801/IDQ60801.94552.axf

JavaScript Object Notation format (JSON) in row-major order
http://www.bom.gov.au/fwo/IDQ60801/IDQ60801.94552.json

Data quality

Most of these data are generated automatically and are frequently updated. Quality checks on data are not normally performed. It is possible for incorrect values to appear. Refer to information at About Latest Weather Observations and please check the disclaimer before using these data.